Time;durP1;ratioP1;P1;durP2;ratioP2;P2;SDS_P1;SDS_P2;PMS_P1;PMS_P2;Temp;Humidity;BMP_temperature;BMP_pressure;BME280_temperature;BME280_humidity;BME280_pressure;Samples;Min_cycle;Max_cycle;Signal;HPM_P1;HPM_P2
2021/10/05 00:00:03;;;;;;;16.02;11.22;;;;;;;;;;352585;151;856542;-64
2021/10/05 00:01:05;;;;;;;18.34;11.21;;;;;;;;;;359450;147;863747;-64
2021/10/05 00:02:07;;;;;;;21.79;11.84;;;;;;;;;;360247;147;856680;-64
2021/10/05 00:03:09;;;;;;;20.54;10.56;;;;;;;;;;360509;147;856185;-64
2021/10/05 00:04:10;;;;;;;18.57;10.66;;;;;;;;;;359556;147;856447;-64
2021/10/05 00:05:12;;;;;;;18.13;11.24;;;;;;;;;;359694;147;856831;-64
2021/10/05 00:06:13;;;;;;;17.14;10.86;;;;;;;;;;359983;147;864371;-64
2021/10/05 00:07:15;;;;;;;20.46;11.21;;;;;;;;;;360145;148;863948;-64
2021/10/05 00:08:17;;;;;;;21.44;11.51;;;;;;;;;;359716;147;856313;-64
2021/10/05 00:09:18;;;;;;;18.88;11.52;;;;;;;;;;360167;147;856231;-64
2021/10/05 00:10:20;;;;;;;20.59;11.76;;;;;;;;;;359593;148;856147;-64
2021/10/05 00:11:22;;;;;;;22.56;11.67;;;;;;;;;;360008;147;856200;-64
2021/10/05 00:12:23;;;;;;;16.20;10.46;;;;;;;;;;359543;147;856054;-64
2021/10/05 00:13:25;;;;;;;17.58;11.26;;;;;;;;;;359804;148;856005;-64
2021/10/05 00:14:26;;;;;;;17.73;10.91;;;;;;;;;;359104;147;856004;-64
2021/10/05 00:15:28;;;;;;;20.56;11.49;;;;;;;;;;359752;147;856269;-64
2021/10/05 00:16:30;;;;;;;23.09;10.75;;;;;;;;;;359927;147;856176;-64
2021/10/05 00:17:32;;;;;;;20.90;10.49;;;;;;;;;;360014;148;856411;-64
2021/10/05 00:18:33;;;;;;;20.34;11.13;;;;;;;;;;360362;147;856112;-64
2021/10/05 00:19:35;;;;;;;15.52;10.19;;;;;;;;;;359532;147;864138;-64
2021/10/05 00:20:38;;;;;;;23.01;11.68;;;;;;;;;;359307;147;863730;-64
2021/10/05 00:21:39;;;;;;;20.94;11.59;;;;;;;;;;360006;147;856108;-64
2021/10/05 00:22:41;;;;;;;20.14;11.81;;;;;;;;;;359627;147;858784;-64
2021/10/05 00:23:43;;;;;;;27.71;12.03;;;;;;;;;;359736;148;856624;-64
2021/10/05 00:24:44;;;;;;;20.26;11.64;;;;;;;;;;359779;148;856737;-64
2021/10/05 00:25:46;;;;;;;22.06;11.69;;;;;;;;;;358825;146;856831;-64
2021/10/05 00:26:48;;;;;;;20.54;11.91;;;;;;;;;;357013;147;863967;-64
2021/10/05 00:27:49;;;;;;;19.94;11.77;;;;;;;;;;357832;146;865440;-64
2021/10/05 00:28:51;;;;;;;21.54;11.86;;;;;;;;;;357766;146;856927;-64
2021/10/05 00:29:52;;;;;;;20.33;10.78;;;;;;;;;;357663;147;856946;-65
2021/10/05 00:30:54;;;;;;;19.49;11.84;;;;;;;;;;357416;146;856671;-64
2021/10/05 00:31:55;;;;;;;19.35;11.48;;;;;;;;;;357711;147;863698;-64
2021/10/05 00:32:57;;;;;;;18.43;12.01;;;;;;;;;;358111;146;856646;-64
2021/10/05 00:33:59;;;;;;;20.29;12.08;;;;;;;;;;357482;147;857459;-65
2021/10/05 00:35:00;;;;;;;21.89;12.34;;;;;;;;;;357602;149;863630;-65
2021/10/05 00:36:02;;;;;;;25.17;13.37;;;;;;;;;;357969;147;856103;-64
2021/10/05 00:37:03;;;;;;;22.81;13.18;;;;;;;;;;357333;147;863710;-64
2021/10/05 00:38:05;;;;;;;24.10;12.41;;;;;;;;;;357653;146;863622;-64
2021/10/05 00:39:06;;;;;;;24.99;12.53;;;;;;;;;;344563;153;856727;-64
2021/10/05 00:40:09;;;;;;;30.42;12.89;;;;;;;;;;343469;154;856275;-64
2021/10/05 00:41:10;;;;;;;23.53;13.16;;;;;;;;;;344450;152;856082;-64
2021/10/05 00:42:12;;;;;;;23.14;13.47;;;;;;;;;;344338;152;856184;-65
2021/10/05 00:43:14;;;;;;;23.63;13.09;;;;;;;;;;343489;153;863645;-65
2021/10/05 00:44:15;;;;;;;25.20;13.65;;;;;;;;;;343369;154;856196;-65
2021/10/05 00:45:17;;;;;;;29.10;13.61;;;;;;;;;;343954;155;856439;-65
2021/10/05 00:46:21;;;;;;;22.61;13.49;;;;;;;;;;344578;154;856460;-64
2021/10/05 00:47:22;;;;;;;27.74;14.01;;;;;;;;;;343353;153;863660;-64
2021/10/05 00:48:23;;;;;;;27.35;13.76;;;;;;;;;;343982;155;856521;-64
2021/10/05 00:49:25;;;;;;;32.29;14.60;;;;;;;;;;346681;152;856186;-64
2021/10/05 00:50:27;;;;;;;24.75;14.19;;;;;;;;;;349757;150;856040;-64
2021/10/05 00:51:28;;;;;;;23.74;14.21;;;;;;;;;;343945;154;856111;-64
2021/10/05 00:52:30;;;;;;;30.11;14.69;;;;;;;;;;343214;154;858915;-64
2021/10/05 00:53:31;;;;;;;28.71;14.69;;;;;;;;;;342257;154;856221;-64
2021/10/05 00:54:34;;;;;;;26.99;15.09;;;;;;;;;;343742;154;856631;-64
2021/10/05 00:55:36;;;;;;;24.95;14.31;;;;;;;;;;350454;150;856567;-64
2021/10/05 00:56:39;;;;;;;25.07;13.68;;;;;;;;;;344837;152;856509;-64
2021/10/05 00:57:41;;;;;;;26.21;14.90;;;;;;;;;;343972;153;856196;-64
2021/10/05 00:58:43;;;;;;;29.49;14.49;;;;;;;;;;344703;153;864451;-64
2021/10/05 00:59:45;;;;;;;28.11;15.09;;;;;;;;;;350362;152;857028;-64
2021/10/05 01:00:47;;;;;;;27.54;14.96;;;;;;;;;;344065;153;856603;-64
2021/10/05 01:01:48;;;;;;;31.04;15.38;;;;;;;;;;349739;151;856554;-64
2021/10/05 01:02:50;;;;;;;26.16;15.14;;;;;;;;;;344279;154;857495;-64
2021/10/05 01:03:53;;;;;;;24.85;14.90;;;;;;;;;;348275;152;856854;-65
2021/10/05 01:04:55;;;;;;;25.83;15.37;;;;;;;;;;346650;153;863924;-65
2021/10/05 01:05:56;;;;;;;26.94;16.45;;;;;;;;;;346990;153;856673;-65
2021/10/05 01:07:03;;;;;;;28.86;15.29;;;;;;;;;;350156;151;856871;-64
2021/10/05 01:08:04;;;;;;;28.53;15.93;;;;;;;;;;349558;152;863907;-64
2021/10/05 01:09:06;;;;;;;30.99;15.96;;;;;;;;;;350250;151;856687;-64
2021/10/05 01:10:11;;;;;;;25.57;15.39;;;;;;;;;;347562;152;863750;-64
2021/10/05 01:11:12;;;;;;;27.32;15.98;;;;;;;;;;348485;151;856081;-64
2021/10/05 01:12:13;;;;;;;28.14;15.48;;;;;;;;;;352917;150;856220;-64
2021/10/05 01:13:15;;;;;;;25.76;15.47;;;;;;;;;;342485;155;856823;-64
2021/10/05 01:14:16;;;;;;;28.84;16.18;;;;;;;;;;347846;152;856282;-64
2021/10/05 01:15:18;;;;;;;27.34;15.46;;;;;;;;;;345036;152;856039;-64
2021/10/05 01:16:20;;;;;;;26.73;15.44;;;;;;;;;;351583;152;863964;-64
2021/10/05 01:17:22;;;;;;;24.29;14.68;;;;;;;;;;348270;153;856010;-64
2021/10/05 01:18:23;;;;;;;26.39;15.86;;;;;;;;;;346132;153;855989;-64
2021/10/05 01:19:25;;;;;;;25.90;15.94;;;;;;;;;;345778;153;856143;-64
2021/10/05 01:20:27;;;;;;;27.62;16.08;;;;;;;;;;352696;152;856894;-64
2021/10/05 01:21:28;;;;;;;27.59;15.30;;;;;;;;;;350562;150;856751;-64
2021/10/05 01:22:30;;;;;;;28.44;16.40;;;;;;;;;;343801;154;856986;-64
2021/10/05 01:23:33;;;;;;;23.09;14.23;;;;;;;;;;343722;155;863706;-64
2021/10/05 01:24:35;;;;;;;27.34;14.36;;;;;;;;;;340737;155;856266;-64
2021/10/05 01:25:36;;;;;;;24.06;14.91;;;;;;;;;;345384;155;856084;-64
2021/10/05 01:26:38;;;;;;;26.63;14.85;;;;;;;;;;339634;155;864420;-64
2021/10/05 01:27:42;;;;;;;26.21;14.79;;;;;;;;;;345140;155;863646;-64
2021/10/05 01:28:43;;;;;;;24.82;14.96;;;;;;;;;;340405;155;863856;-64
2021/10/05 01:29:45;;;;;;;24.61;15.23;;;;;;;;;;339982;155;864017;-64
2021/10/05 01:30:47;;;;;;;24.88;15.52;;;;;;;;;;341907;155;857313;-64
2021/10/05 01:31:49;;;;;;;23.17;13.62;;;;;;;;;;339220;157;856430;-64
2021/10/05 01:32:51;;;;;;;23.67;14.53;;;;;;;;;;345278;153;857489;-64
2021/10/05 01:33:52;;;;;;;21.46;13.74;;;;;;;;;;340785;156;856218;-64
2021/10/05 01:34:54;;;;;;;30.07;14.97;;;;;;;;;;351159;153;856668;-64
2021/10/05 01:35:55;;;;;;;23.84;15.24;;;;;;;;;;344870;153;864562;-64
2021/10/05 01:37:00;;;;;;;33.28;15.16;;;;;;;;;;346994;153;858598;-64
2021/10/05 01:38:02;;;;;;;23.85;14.71;;;;;;;;;;343920;154;863767;-64
2021/10/05 01:39:04;;;;;;;26.67;14.31;;;;;;;;;;338803;158;856659;-64
2021/10/05 01:40:07;;;;;;;25.55;15.17;;;;;;;;;;344454;153;856023;-64
2021/10/05 01:41:08;;;;;;;27.79;14.37;;;;;;;;;;343780;155;856524;-64
2021/10/05 01:42:11;;;;;;;24.71;13.98;;;;;;;;;;346611;153;856439;-64
2021/10/05 01:43:12;;;;;;;25.41;15.05;;;;;;;;;;344963;154;856701;-64
2021/10/05 01:44:14;;;;;;;21.06;14.03;;;;;;;;;;342310;153;856696;-64
2021/10/05 01:45:15;;;;;;;21.39;13.91;;;;;;;;;;344622;155;856654;-64
2021/10/05 01:46:18;;;;;;;24.07;14.04;;;;;;;;;;346039;153;864232;-64
2021/10/05 01:47:19;;;;;;;26.51;14.69;;;;;;;;;;346238;154;857010;-64
2021/10/05 01:48:21;;;;;;;26.81;14.71;;;;;;;;;;342197;155;856088;-64
2021/10/05 01:49:22;;;;;;;25.15;14.57;;;;;;;;;;342687;153;856226;-64
2021/10/05 01:50:27;;;;;;;25.66;13.73;;;;;;;;;;345231;153;864350;-64
2021/10/05 01:51:28;;;;;;;23.53;14.33;;;;;;;;;;345213;154;856798;-64
2021/10/05 01:52:29;;;;;;;22.76;14.63;;;;;;;;;;341615;153;863705;-64
2021/10/05 01:53:31;;;;;;;21.47;12.99;;;;;;;;;;345391;154;857010;-65
2021/10/05 01:54:33;;;;;;;23.21;14.01;;;;;;;;;;346637;153;863594;-64
2021/10/05 01:55:35;;;;;;;24.63;13.30;;;;;;;;;;344209;155;856144;-64
2021/10/05 01:56:38;;;;;;;21.07;13.81;;;;;;;;;;344150;153;856373;-64
2021/10/05 01:57:40;;;;;;;27.88;14.50;;;;;;;;;;346730;153;856164;-64
2021/10/05 01:58:43;;;;;;;24.74;13.74;;;;;;;;;;343319;155;856432;-64
2021/10/05 01:59:45;;;;;;;23.78;13.68;;;;;;;;;;346222;153;863779;-64
2021/10/05 02:00:47;;;;;;;23.33;13.51;;;;;;;;;;346015;153;856787;-64
2021/10/05 02:01:48;;;;;;;22.20;14.49;;;;;;;;;;344524;153;856280;-65
2021/10/05 02:02:52;;;;;;;24.36;14.12;;;;;;;;;;346047;155;856272;-65
2021/10/05 02:03:54;;;;;;;24.81;13.92;;;;;;;;;;339558;157;856680;-64
2021/10/05 02:04:55;;;;;;;26.72;13.51;;;;;;;;;;345511;155;863512;-64
2021/10/05 02:05:57;;;;;;;22.79;13.96;;;;;;;;;;340207;155;860648;-64
2021/10/05 02:06:58;;;;;;;23.84;14.23;;;;;;;;;;338811;155;864911;-64
2021/10/05 02:08:00;;;;;;;23.06;13.14;;;;;;;;;;342183;155;856224;-64
2021/10/05 02:09:02;;;;;;;23.63;14.16;;;;;;;;;;343400;155;856094;-64
2021/10/05 02:10:05;;;;;;;23.27;13.80;;;;;;;;;;346376;153;856098;-64
2021/10/05 02:11:07;;;;;;;31.07;13.63;;;;;;;;;;339804;156;863655;-65
2021/10/05 02:12:08;;;;;;;25.46;14.11;;;;;;;;;;343229;155;863919;-65
2021/10/05 02:13:10;;;;;;;22.50;13.66;;;;;;;;;;339543;155;858039;-65
2021/10/05 02:14:12;;;;;;;27.49;14.43;;;;;;;;;;340429;156;856363;-65
2021/10/05 02:15:13;;;;;;;24.60;13.51;;;;;;;;;;339445;156;856482;-65
2021/10/05 02:16:15;;;;;;;26.07;13.91;;;;;;;;;;347157;155;863780;-65
2021/10/05 02:17:17;;;;;;;24.63;14.00;;;;;;;;;;347493;153;856238;-65
2021/10/05 02:18:18;;;;;;;24.79;13.91;;;;;;;;;;345474;153;863605;-64
2021/10/05 02:19:20;;;;;;;25.85;13.66;;;;;;;;;;343483;155;858302;-64
2021/10/05 02:20:22;;;;;;;24.25;14.45;;;;;;;;;;340007;157;856053;-64
2021/10/05 02:21:24;;;;;;;21.36;13.76;;;;;;;;;;340159;155;856421;-64
2021/10/05 02:22:25;;;;;;;24.00;13.71;;;;;;;;;;346471;153;855979;-64
2021/10/05 02:24:47;;;;;;;22.89;13.81;;;;;;;;;;345195;153;863726;-64
2021/10/05 02:25:49;;;;;;;25.58;14.19;;;;;;;;;;345938;154;856784;-64
2021/10/05 02:26:52;;;;;;;26.93;13.82;;;;;;;;;;348077;152;856413;-64
2021/10/05 02:27:53;;;;;;;28.04;14.70;;;;;;;;;;353391;150;856930;-64
2021/10/05 02:28:55;;;;;;;22.56;14.28;;;;;;;;;;352433;150;863898;-64
2021/10/05 02:29:56;;;;;;;22.81;14.68;;;;;;;;;;351334;151;856531;-64
2021/10/05 02:30:58;;;;;;;28.24;13.75;;;;;;;;;;353020;150;864236;-64
2021/10/05 02:31:59;;;;;;;29.54;14.67;;;;;;;;;;362083;148;864263;-64
2021/10/05 02:33:01;;;;;;;22.75;13.85;;;;;;;;;;360210;147;856516;-64
2021/10/05 02:34:03;;;;;;;24.66;14.16;;;;;;;;;;360381;147;856219;-64
2021/10/05 02:35:05;;;;;;;25.99;14.45;;;;;;;;;;357876;145;862287;-64
2021/10/05 02:36:07;;;;;;;27.88;14.89;;;;;;;;;;361723;147;863669;-64
2021/10/05 02:37:08;;;;;;;26.91;14.16;;;;;;;;;;358983;147;856301;-64
2021/10/05 02:38:10;;;;;;;24.29;14.04;;;;;;;;;;359804;147;856370;-64
2021/10/05 02:39:13;;;;;;;23.36;13.46;;;;;;;;;;358575;147;856356;-64
2021/10/05 02:40:15;;;;;;;22.66;13.76;;;;;;;;;;359333;148;864257;-64
2021/10/05 02:41:17;;;;;;;21.46;13.66;;;;;;;;;;361579;148;856060;-64
2021/10/05 02:42:18;;;;;;;27.06;13.97;;;;;;;;;;361443;147;863612;-64
2021/10/05 02:43:20;;;;;;;23.72;13.26;;;;;;;;;;359525;147;864071;-64
2021/10/05 02:44:21;;;;;;;23.30;13.39;;;;;;;;;;360405;148;856572;-64
2021/10/05 02:45:23;;;;;;;24.88;14.25;;;;;;;;;;343193;153;863753;-64
2021/10/05 02:46:26;;;;;;;24.94;14.09;;;;;;;;;;360697;147;863785;-64
2021/10/05 02:47:28;;;;;;;22.77;13.75;;;;;;;;;;360582;148;856376;-64
2021/10/05 02:48:29;;;;;;;21.81;13.43;;;;;;;;;;358822;147;857452;-64
2021/10/05 02:49:31;;;;;;;22.99;13.89;;;;;;;;;;361200;147;856137;-64
2021/10/05 02:50:33;;;;;;;25.57;14.55;;;;;;;;;;362229;147;856172;-64
2021/10/05 02:51:35;;;;;;;25.44;12.98;;;;;;;;;;359644;148;856515;-64
2021/10/05 02:52:36;;;;;;;25.66;12.92;;;;;;;;;;361130;147;863599;-64
2021/10/05 02:53:38;;;;;;;24.57;14.39;;;;;;;;;;360532;148;856042;-64
2021/10/05 02:54:39;;;;;;;22.37;14.20;;;;;;;;;;362542;148;863674;-64
2021/10/05 02:55:41;;;;;;;21.98;13.88;;;;;;;;;;361524;147;856390;-64
2021/10/05 02:56:42;;;;;;;26.58;15.05;;;;;;;;;;361153;145;856770;-64
2021/10/05 02:57:44;;;;;;;21.93;13.36;;;;;;;;;;360566;147;863936;-64
2021/10/05 02:58:46;;;;;;;28.53;14.36;;;;;;;;;;356379;148;856256;-64
2021/10/05 02:59:47;;;;;;;25.66;14.04;;;;;;;;;;359643;147;863966;-64
2021/10/05 03:00:49;;;;;;;27.07;14.13;;;;;;;;;;359747;147;856163;-65
2021/10/05 03:01:51;;;;;;;25.01;13.81;;;;;;;;;;360233;148;856208;-64
2021/10/05 03:02:52;;;;;;;22.14;13.83;;;;;;;;;;359144;148;863873;-64
2021/10/05 03:03:54;;;;;;;22.51;13.86;;;;;;;;;;360002;147;856371;-65
2021/10/05 03:04:56;;;;;;;25.40;14.15;;;;;;;;;;359681;148;863605;-65
2021/10/05 03:05:57;;;;;;;21.45;13.50;;;;;;;;;;361910;147;856223;-65
2021/10/05 03:06:59;;;;;;;26.52;13.45;;;;;;;;;;360576;147;856315;-64
2021/10/05 03:08:01;;;;;;;24.64;13.99;;;;;;;;;;360532;147;863466;-64
2021/10/05 03:09:03;;;;;;;23.03;13.06;;;;;;;;;;358361;148;856040;-64
2021/10/05 03:10:05;;;;;;;22.59;13.79;;;;;;;;;;360798;147;856129;-64
2021/10/05 03:11:06;;;;;;;22.94;13.86;;;;;;;;;;359894;147;856059;-64
2021/10/05 03:12:08;;;;;;;25.21;14.18;;;;;;;;;;358388;148;856018;-65
2021/10/05 03:13:10;;;;;;;22.29;13.41;;;;;;;;;;359618;147;863560;-61
2021/10/05 03:14:11;;;;;;;24.09;13.89;;;;;;;;;;360614;145;863675;-63
2021/10/05 03:15:14;;;;;;;23.76;14.29;;;;;;;;;;357776;148;856635;-62
2021/10/05 03:16:17;;;;;;;24.22;14.04;;;;;;;;;;362588;148;863766;-62
2021/10/05 03:17:18;;;;;;;27.12;14.10;;;;;;;;;;360582;145;863803;-63
2021/10/05 03:18:20;;;;;;;29.87;14.11;;;;;;;;;;358803;147;863715;-62
2021/10/05 03:19:21;;;;;;;28.66;14.37;;;;;;;;;;357055;148;856101;-64
2021/10/05 03:20:23;;;;;;;27.85;13.77;;;;;;;;;;359321;145;856592;-64
2021/10/05 03:21:25;;;;;;;24.01;14.09;;;;;;;;;;362145;147;856507;-61
2021/10/05 03:22:27;;;;;;;25.19;13.99;;;;;;;;;;356804;147;863670;-62
2021/10/05 03:23:28;;;;;;;28.97;14.42;;;;;;;;;;359205;147;856471;-64
2021/10/05 03:24:30;;;;;;;22.22;13.20;;;;;;;;;;359911;146;856089;-60
2021/10/05 03:25:31;;;;;;;22.00;14.09;;;;;;;;;;362617;147;858610;-62
2021/10/05 03:26:33;;;;;;;25.83;13.68;;;;;;;;;;361507;148;863815;-63
2021/10/05 03:27:35;;;;;;;26.16;13.96;;;;;;;;;;362172;145;857028;-63
2021/10/05 03:28:37;;;;;;;29.86;14.41;;;;;;;;;;358872;147;863606;-63
2021/10/05 03:29:39;;;;;;;22.46;13.43;;;;;;;;;;361339;148;863739;-63
2021/10/05 03:30:42;;;;;;;22.99;13.38;;;;;;;;;;360271;147;863649;-64
2021/10/05 03:31:43;;;;;;;25.16;14.07;;;;;;;;;;362066;145;862241;-64
2021/10/05 03:32:45;;;;;;;22.71;13.11;;;;;;;;;;361115;148;856599;-64
2021/10/05 03:33:46;;;;;;;24.46;14.47;;;;;;;;;;353632;150;863795;-63
2021/10/05 03:34:48;;;;;;;27.41;14.45;;;;;;;;;;359727;146;857118;-63
2021/10/05 03:35:50;;;;;;;25.64;14.04;;;;;;;;;;362598;147;856477;-62
2021/10/05 03:36:51;;;;;;;25.11;14.18;;;;;;;;;;363013;148;856319;-64
2021/10/05 03:37:53;;;;;;;24.46;14.74;;;;;;;;;;360823;145;863907;-63
2021/10/05 03:38:54;;;;;;;25.08;14.36;;;;;;;;;;362318;145;858613;-63
2021/10/05 03:39:56;;;;;;;22.09;14.07;;;;;;;;;;362100;148;856526;-63
2021/10/05 03:40:58;;;;;;;29.17;14.43;;;;;;;;;;358705;147;856052;-63
2021/10/05 03:41:59;;;;;;;24.54;13.20;;;;;;;;;;360067;146;856167;-62
2021/10/05 03:43:01;;;;;;;21.82;13.45;;;;;;;;;;360704;147;863583;-63
2021/10/05 03:44:03;;;;;;;23.94;13.49;;;;;;;;;;360075;148;858660;-64
2021/10/05 03:45:05;;;;;;;26.63;14.59;;;;;;;;;;360323;146;863645;-63
2021/10/05 03:46:07;;;;;;;27.31;14.85;;;;;;;;;;360169;147;856077;-61
2021/10/05 03:47:09;;;;;;;21.16;13.61;;;;;;;;;;356835;148;856072;-61
2021/10/05 03:48:13;;;;;;;26.81;13.51;;;;;;;;;;356152;147;863725;-65
2021/10/05 03:49:15;;;;;;;23.63;13.62;;;;;;;;;;362791;145;863882;-64
2021/10/05 03:50:18;;;;;;;24.77;14.27;;;;;;;;;;359274;148;856624;-63
2021/10/05 03:51:19;;;;;;;24.62;14.06;;;;;;;;;;355754;148;856095;-63
2021/10/05 03:52:21;;;;;;;25.13;13.92;;;;;;;;;;361050;146;863732;-63
2021/10/05 03:53:23;;;;;;;25.40;13.19;;;;;;;;;;349362;151;856583;-64
2021/10/05 03:54:24;;;;;;;26.66;14.24;;;;;;;;;;349681;151;863701;-62
2021/10/05 03:55:26;;;;;;;27.60;14.49;;;;;;;;;;358695;146;856537;-62
2021/10/05 03:56:29;;;;;;;24.59;13.58;;;;;;;;;;360353;147;863671;-64
2021/10/05 03:57:30;;;;;;;22.14;13.24;;;;;;;;;;359978;148;856300;-65
2021/10/05 03:58:32;;;;;;;25.71;14.12;;;;;;;;;;359258;147;856045;-63
2021/10/05 03:59:33;;;;;;;25.66;15.07;;;;;;;;;;360840;145;863672;-62
2021/10/05 04:00:35;;;;;;;22.97;13.39;;;;;;;;;;360507;147;856188;-61
2021/10/05 04:01:39;;;;;;;24.57;14.01;;;;;;;;;;352176;150;856609;-63
2021/10/05 04:02:40;;;;;;;24.42;15.09;;;;;;;;;;350973;146;863816;-63
2021/10/05 04:03:42;;;;;;;27.05;14.47;;;;;;;;;;361625;147;864204;-64
2021/10/05 04:04:43;;;;;;;30.81;14.32;;;;;;;;;;361275;147;856133;-63
2021/10/05 04:05:45;;;;;;;25.61;14.74;;;;;;;;;;359984;147;860837;-63
2021/10/05 04:06:48;;;;;;;24.07;14.23;;;;;;;;;;362319;145;856153;-62
2021/10/05 04:07:50;;;;;;;31.66;14.59;;;;;;;;;;358435;148;856402;-63
2021/10/05 04:08:51;;;;;;;23.44;14.93;;;;;;;;;;359886;148;856421;-66
2021/10/05 04:09:53;;;;;;;24.29;14.11;;;;;;;;;;363198;145;859916;-63
2021/10/05 04:10:55;;;;;;;24.11;14.29;;;;;;;;;;358797;147;863781;-63
2021/10/05 04:11:56;;;;;;;28.74;14.67;;;;;;;;;;358802;148;856689;-62
2021/10/05 04:12:58;;;;;;;24.66;14.79;;;;;;;;;;363356;145;856266;-61
2021/10/05 04:13:59;;;;;;;27.86;13.94;;;;;;;;;;358963;147;863858;-62
2021/10/05 04:15:01;;;;;;;24.05;14.28;;;;;;;;;;358761;148;863790;-62
2021/10/05 04:16:03;;;;;;;24.96;13.69;;;;;;;;;;359751;147;856534;-63
2021/10/05 04:17:04;;;;;;;23.88;14.49;;;;;;;;;;361207;145;863971;-63
2021/10/05 04:18:06;;;;;;;23.88;13.87;;;;;;;;;;359193;147;864096;-61
2021/10/05 04:19:07;;;;;;;27.57;14.74;;;;;;;;;;360510;148;864163;-61
2021/10/05 04:20:10;;;;;;;27.69;14.71;;;;;;;;;;360104;145;863854;-62
2021/10/05 04:21:12;;;;;;;28.17;15.49;;;;;;;;;;359325;147;856890;-62
2021/10/05 04:22:13;;;;;;;27.01;14.74;;;;;;;;;;359977;148;856642;-65
2021/10/05 04:23:15;;;;;;;30.11;14.63;;;;;;;;;;361091;145;856387;-64
2021/10/05 04:24:16;;;;;;;25.39;14.03;;;;;;;;;;359848;147;864519;-62
2021/10/05 04:25:18;;;;;;;22.50;13.79;;;;;;;;;;361200;148;856277;-63
2021/10/05 04:26:21;;;;;;;24.07;14.91;;;;;;;;;;362953;148;863821;-65
2021/10/05 04:27:22;;;;;;;28.75;13.65;;;;;;;;;;362611;146;856161;-65
2021/10/05 04:28:24;;;;;;;25.83;14.83;;;;;;;;;;359926;147;857089;-63
2021/10/05 04:29:26;;;;;;;25.72;14.41;;;;;;;;;;360532;148;857233;-64
2021/10/05 04:30:28;;;;;;;26.05;14.43;;;;;;;;;;358923;145;856103;-60
2021/10/05 04:31:29;;;;;;;25.37;14.24;;;;;;;;;;358401;145;856316;-62
2021/10/05 04:32:31;;;;;;;29.52;14.48;;;;;;;;;;354824;148;863926;-64
2021/10/05 04:33:32;;;;;;;30.86;14.95;;;;;;;;;;355962;147;863959;-61
2021/10/05 04:34:34;;;;;;;29.62;14.76;;;;;;;;;;361975;145;856561;-63
2021/10/05 04:35:36;;;;;;;27.03;15.15;;;;;;;;;;360841;147;863877;-63
2021/10/05 04:36:39;;;;;;;27.39;13.74;;;;;;;;;;356499;151;863763;-63
2021/10/05 04:37:40;;;;;;;23.74;14.52;;;;;;;;;;359949;145;857094;-63
2021/10/05 04:38:42;;;;;;;29.71;14.92;;;;;;;;;;360914;147;856692;-66
2021/10/05 04:39:43;;;;;;;26.15;13.94;;;;;;;;;;358912;148;863941;-64
2021/10/05 04:40:46;;;;;;;25.93;14.89;;;;;;;;;;359372;147;856894;-62
2021/10/05 04:41:47;;;;;;;25.02;15.30;;;;;;;;;;360381;147;856533;-63
2021/10/05 04:42:49;;;;;;;27.73;14.78;;;;;;;;;;359767;147;856466;-63
2021/10/05 04:45:33;;;;;;;29.70;15.98;;;;;;;6.84;71.66;101419.23;366858;142;966469;-61
2021/10/05 04:46:38;;;;;;;24.76;12.95;;;;;;;6.76;71.76;101421.59;362340;147;864022;-61
2021/10/05 04:47:40;;;;;;;20.90;11.04;;;;;;;6.79;71.72;101424.27;362007;146;856625;-62
2021/10/05 04:48:42;;;;;;;23.72;11.61;;;;;;;6.82;71.64;101431.19;362815;146;856336;-63
2021/10/05 04:49:43;;;;;;;21.34;10.50;;;;;;;6.88;71.46;101428.80;363446;146;856271;-62
2021/10/05 04:50:46;;;;;;;17.88;10.85;;;;;;;6.98;71.22;101425.72;363390;146;863743;-61
2021/10/05 04:51:47;;;;;;;15.47;9.97;;;;;;;7.06;70.92;101425.08;363329;145;856268;-61
2021/10/05 04:52:49;;;;;;;17.71;10.89;;;;;;;7.15;70.65;101426.21;362827;146;856776;-62
2021/10/05 04:53:51;;;;;;;21.49;9.97;;;;;;;7.29;70.46;101438.62;363194;146;864808;-63
2021/10/05 04:54:53;;;;;;;19.04;9.91;;;;;;;7.39;69.86;101438.06;363057;146;856567;-64
2021/10/05 04:55:55;;;;;;;18.23;10.04;;;;;;;7.48;69.72;101437.47;363445;146;864563;-61
2021/10/05 04:56:59;;;;;;;27.56;11.71;;;;;;;7.61;69.38;101436.14;361069;146;863773;-62
2021/10/05 04:58:01;;;;;;;20.66;11.14;;;;;;;7.72;69.11;101437.30;359200;150;856065;-63
2021/10/05 04:59:03;;;;;;;21.57;11.38;;;;;;;7.81;68.76;101440.97;362617;146;856223;-62
2021/10/05 05:00:06;;;;;;;21.60;12.03;;;;;;;7.90;68.37;101443.80;363210;146;856119;-61
2021/10/05 05:01:08;;;;;;;20.71;12.39;;;;;;;7.95;68.11;101449.06;360565;148;856097;-64
2021/10/05 05:02:10;;;;;;;27.67;13.74;;;;;;;7.99;68.08;101456.94;364101;145;856089;-58
2021/10/05 05:03:11;;;;;;;20.81;13.29;;;;;;;8.03;67.85;101452.75;360302;146;863778;-59
2021/10/05 05:04:13;;;;;;;20.56;13.27;;;;;;;8.08;67.80;101455.44;356828;150;856460;-63
2021/10/05 05:05:15;;;;;;;21.26;13.09;;;;;;;8.10;67.44;101453.77;356719;147;863772;-66
2021/10/05 05:06:17;;;;;;;23.52;13.81;;;;;;;8.08;67.24;101456.33;357421;147;863810;-65
2021/10/05 05:07:18;;;;;;;25.74;14.20;;;;;;;8.08;67.24;101465.76;358700;148;856108;-63
2021/10/05 05:08:20;;;;;;;21.73;12.89;;;;;;;8.08;67.46;101463.18;355624;147;863841;-66
2021/10/05 05:09:22;;;;;;;24.49;13.14;;;;;;;8.03;67.21;101463.07;358768;147;863534;-66
2021/10/05 05:10:24;;;;;;;24.31;14.53;;;;;;;8.00;67.56;101465.57;357003;148;863903;-67
2021/10/05 05:11:26;;;;;;;27.54;14.26;;;;;;;7.98;67.38;101465.52;356719;149;856424;-63
2021/10/05 05:12:28;;;;;;;24.05;13.86;;;;;;;7.94;67.63;101466.26;359033;147;863621;-67
2021/10/05 05:13:30;;;;;;;25.63;13.97;;;;;;;7.93;67.47;101467.09;356305;149;863614;-65
2021/10/05 05:14:31;;;;;;;23.92;14.24;;;;;;;7.93;67.71;101464.52;354290;147;856455;-59
2021/10/05 05:15:33;;;;;;;26.96;14.69;;;;;;;7.88;67.83;101466.95;357761;147;863635;-61
2021/10/05 05:16:35;;;;;;;26.89;14.24;;;;;;;7.88;67.82;101466.09;358551;147;863705;-61
2021/10/05 05:17:37;;;;;;;23.25;13.39;;;;;;;7.90;68.02;101464.43;357009;147;856401;-62
2021/10/05 05:18:39;;;;;;;28.61;15.58;;;;;;;7.96;68.03;101469.75;358332;150;856393;-61
2021/10/05 05:19:41;;;;;;;27.42;14.28;;;;;;;8.02;67.76;101472.50;357493;148;864131;-58
2021/10/05 05:20:43;;;;;;;23.11;14.19;;;;;;;8.06;67.72;101470.00;356866;149;863773;-59
2021/10/05 05:21:45;;;;;;;25.82;14.49;;;;;;;8.09;67.54;101467.50;357336;150;856322;-59
2021/10/05 05:22:47;;;;;;;28.22;14.86;;;;;;;8.10;67.42;101469.25;358029;147;864010;-60
2021/10/05 05:23:49;;;;;;;23.69;15.03;;;;;;;8.09;67.48;101470.98;358496;147;863962;-61
2021/10/05 05:24:51;;;;;;;25.76;14.05;;;;;;;8.07;67.42;101475.22;358481;147;863810;-60
2021/10/05 05:25:52;;;;;;;24.37;13.30;;;;;;;8.07;67.38;101472.64;357204;149;856712;-63
2021/10/05 05:26:54;;;;;;;27.13;14.61;;;;;;;8.11;67.65;101469.31;357865;147;863857;-60
2021/10/05 05:27:56;;;;;;;23.82;14.97;;;;;;;8.12;67.13;101480.48;358521;148;856001;-60
2021/10/05 05:28:58;;;;;;;25.40;14.56;;;;;;;8.12;67.13;101480.48;356497;149;856148;-59
2021/10/05 05:30:00;;;;;;;28.44;14.42;;;;;;;7.98;67.40;101475.83;358459;147;863817;-60
2021/10/05 05:31:01;;;;;;;19.09;11.82;;;;;;;7.93;67.54;101485.14;351537;150;864325;-59
2021/10/05 05:32:04;;;;;;;28.41;14.50;;;;;;;7.90;67.97;101485.06;351210;150;863638;-60
2021/10/05 05:33:05;;;;;;;24.92;15.14;;;;;;;7.94;68.25;101493.74;355934;150;863939;-59
2021/10/05 05:34:07;;;;;;;26.39;15.01;;;;;;;7.95;68.18;101486.06;358649;147;856716;-60
2021/10/05 05:35:09;;;;;;;22.46;13.29;;;;;;;7.99;68.11;101487.89;357359;148;864472;-60
2021/10/05 05:36:11;;;;;;;27.85;15.83;;;;;;;8.06;67.86;101490.64;357422;150;863588;-60
2021/10/05 05:37:13;;;;;;;25.39;14.88;;;;;;;8.11;67.66;101489.95;357944;147;863883;-60
2021/10/05 05:38:15;;;;;;;24.99;14.54;;;;;;;8.16;67.36;101487.47;357273;147;863721;-59
2021/10/05 05:39:17;;;;;;;25.24;15.07;;;;;;;8.19;67.57;101487.56;356439;149;863802;-61
2021/10/05 05:40:20;;;;;;;27.45;14.09;;;;;;;8.24;67.49;101491.13;354385;148;856199;-60
2021/10/05 05:41:22;;;;;;;26.79;15.89;;;;;;;8.30;67.43;101493.02;356415;148;863799;-59
2021/10/05 05:42:24;;;;;;;27.37;15.30;;;;;;;8.34;67.20;101498.28;355253;147;856875;-61